createdAt,value
2019-03-23T00:53:14.681Z,8.18
2019-03-23T00:55:45.362Z,8.16
2019-03-23T01:08:43.868Z,8.23
2019-03-23T02:01:49.568Z,8.39
2019-03-23T02:04:20.321Z,8.32
2019-03-23T02:30:03.471Z,8.46
2019-03-23T02:32:53.056Z,8.58
2019-03-23T02:35:45.620Z,8.49
2019-03-23T02:38:35.023Z,8.58
2019-03-23T03:15:35.411Z,8.54
2019-03-23T03:25:08.488Z,8.40
2019-03-23T03:27:39.162Z,8.52
2019-03-23T03:30:49.217Z,8.56
2019-03-23T03:36:22.139Z,8.40
2019-03-23T03:38:52.842Z,8.50
2019-03-23T05:34:27.406Z,8.88
2019-03-23T07:23:27.555Z,9.86
2019-03-23T07:34:26.284Z,10.02
2019-03-23T07:36:56.991Z,9.98
2019-03-23T09:08:43.301Z,11.49
2019-03-23T09:27:29.707Z,11.97
2019-03-23T09:30:01.852Z,12.09
2019-03-23T09:44:49.819Z,12.49
2019-03-23T09:47:38.041Z,12.62
2019-03-23T09:50:22.339Z,12.65
2019-03-23T09:53:11.727Z,12.72
2019-03-23T09:59:18.238Z,12.95
2019-03-23T10:07:27.951Z,13.31
2019-03-23T10:09:59.136Z,13.31
2019-03-23T10:15:22.290Z,13.47
2019-03-23T10:24:02.051Z,13.87
2019-03-23T10:33:02.119Z,13.99
2019-03-23T10:38:16.815Z,13.95
2019-03-23T10:43:48.752Z,13.85
2019-03-23T10:46:19.476Z,13.88
2019-03-23T10:49:12.400Z,13.86
2019-03-23T10:55:00.980Z,13.97
2019-03-23T11:00:35.342Z,14.11
2019-03-23T11:03:06.034Z,14.24
2019-03-23T11:06:02.049Z,14.17
2019-03-23T11:08:32.787Z,14.41
2019-03-23T11:11:03.771Z,14.28
2019-03-23T11:30:27.216Z,14.81
2019-03-23T11:36:55.739Z,14.87
2019-03-23T11:39:27.409Z,15.02
2019-03-23T11:57:26.477Z,15.40
2019-03-23T11:59:57.167Z,15.41
2019-03-23T12:05:18.765Z,15.71
2019-03-23T12:22:46.586Z,15.88
2019-03-23T12:31:12.739Z,16.08
2019-03-23T12:33:43.435Z,15.80
2019-03-23T12:36:14.122Z,15.97
2019-03-23T12:39:04.524Z,15.71
2019-03-23T12:41:53.979Z,15.69
2019-03-23T12:44:24.670Z,15.44
2019-03-23T12:46:55.392Z,15.61
2019-03-23T12:52:20.337Z,15.42
2019-03-23T12:54:52.282Z,15.48
2019-03-23T13:13:58.098Z,15.44
2019-03-23T13:42:22.003Z,14.35
2019-03-23T13:44:52.660Z,14.46
2019-03-23T13:47:23.316Z,14.35
2019-03-23T13:49:53.955Z,14.41
2019-03-23T13:52:24.624Z,14.20
2019-03-23T13:54:55.266Z,14.06
2019-03-23T13:57:25.916Z,13.97
2019-03-23T13:59:56.545Z,13.90
2019-03-23T14:02:27.285Z,13.80
2019-03-23T14:04:57.913Z,13.76
2019-03-23T14:07:28.555Z,13.76
2019-03-23T14:09:59.191Z,13.57
2019-03-23T14:12:29.851Z,13.52
2019-03-23T14:15:00.488Z,13.58
2019-03-23T14:17:31.210Z,13.27
2019-03-23T14:20:01.865Z,13.38
2019-03-23T14:29:25.606Z,13.25
2019-03-23T14:47:46.220Z,12.72
2019-03-23T14:50:16.867Z,12.52
2019-03-23T14:52:47.533Z,12.49
2019-03-23T14:55:18.184Z,12.48
2019-03-23T14:57:48.835Z,12.46
2019-03-23T15:00:44.573Z,12.51
2019-03-23T15:06:08.822Z,12.34
2019-03-23T15:08:39.463Z,12.39
2019-03-23T15:11:10.101Z,12.42
2019-03-23T15:13:52.071Z,12.48
2019-03-23T15:16:38.331Z,12.35
2019-03-23T15:26:01.369Z,12.22
2019-03-23T15:28:32.047Z,12.22
2019-03-23T15:31:02.712Z,12.04
2019-03-23T15:33:33.430Z,12.00
2019-03-23T15:36:04.057Z,11.98
2019-03-23T15:38:34.743Z,11.80
2019-03-23T15:41:05.435Z,11.69
2019-03-23T15:43:36.114Z,11.67
2019-03-23T15:46:06.757Z,11.85
2019-03-23T15:48:37.412Z,11.67
2019-03-23T15:51:08.077Z,11.50
2019-03-23T15:53:49.789Z,11.42
2019-03-23T15:56:20.450Z,11.29
2019-03-23T16:01:50.029Z,11.14
2019-03-23T16:04:20.650Z,11.18
2019-03-23T16:06:51.313Z,11.12
2019-03-23T16:09:21.959Z,10.89
2019-03-23T16:11:52.615Z,10.75
2019-03-23T16:14:23.243Z,10.78
2019-03-23T16:16:53.898Z,10.76
2019-03-23T16:19:24.514Z,10.86
2019-03-23T16:24:41.206Z,10.58
2019-03-23T16:27:11.868Z,10.61
2019-03-23T16:29:42.523Z,10.46
2019-03-23T16:32:13.213Z,10.32
2019-03-23T16:34:43.864Z,10.36
2019-03-23T16:37:14.516Z,10.22
2019-03-23T16:39:45.293Z,10.12
2019-03-23T16:42:15.968Z,10.07
2019-03-23T16:44:46.635Z,10.09
2019-03-23T16:47:17.324Z,10.08
2019-03-23T16:49:48.121Z,10.00
2019-03-23T16:52:18.879Z,9.84
2019-03-23T16:54:49.531Z,9.96
2019-03-23T16:57:20.186Z,9.92
2019-03-23T16:59:50.913Z,9.86
2019-03-23T17:02:21.767Z,9.82
2019-03-23T17:04:52.389Z,9.76
2019-03-23T17:07:23.325Z,9.64
2019-03-23T17:09:53.972Z,9.59
2019-03-23T17:12:24.599Z,9.43
2019-03-23T17:14:57.358Z,9.40
2019-03-23T17:17:28.156Z,9.46
2019-03-23T17:19:58.798Z,9.41
2019-03-23T17:22:29.455Z,9.43
2019-03-23T17:25:00.121Z,9.34
2019-03-23T17:27:30.826Z,9.27
2019-03-23T17:30:01.480Z,9.19
2019-03-23T17:32:33.743Z,9.13
2019-03-23T17:35:04.468Z,9.12
2019-03-23T17:37:35.168Z,9.05
2019-03-23T17:40:05.925Z,9.05
2019-03-23T17:42:36.684Z,8.97
2019-03-23T17:48:25.637Z,8.98
2019-03-23T17:50:56.343Z,8.90
2019-03-23T17:53:27.003Z,8.90
2019-03-23T17:55:59.257Z,8.94
2019-03-23T17:58:29.911Z,8.86
2019-03-23T18:04:09.876Z,8.83
2019-03-23T18:06:40.525Z,8.77
2019-03-23T18:11:53.921Z,8.69
2019-03-23T18:14:44.809Z,8.69
2019-03-23T18:17:15.865Z,8.63
2019-03-23T18:19:46.613Z,8.50
2019-03-23T18:22:17.402Z,8.53
2019-03-23T18:24:48.075Z,8.50
2019-03-23T18:27:18.802Z,8.39
2019-03-23T18:29:49.450Z,8.26
2019-03-23T18:32:20.118Z,8.28
2019-03-23T18:44:52.317Z,8.09
2019-03-23T18:47:22.964Z,7.92
2019-03-23T18:53:00.812Z,7.91
2019-03-23T18:55:51.678Z,7.85
2019-03-23T19:01:27.633Z,7.75
2019-03-23T19:04:02.283Z,7.75
2019-03-23T19:06:51.687Z,7.74
2019-03-23T19:14:59.344Z,7.68
2019-03-23T19:20:52.547Z,7.67
2019-03-23T19:23:48.175Z,7.61
2019-03-23T19:26:55.870Z,7.59
2019-03-23T19:32:51.991Z,7.56
2019-03-23T19:35:22.934Z,7.42
2019-03-23T19:38:12.379Z,7.43
2019-03-23T19:41:02.871Z,7.43
2019-03-23T19:47:11.530Z,7.24
2019-03-23T19:58:24.079Z,7.24
2019-03-23T20:00:54.775Z,7.26
2019-03-23T20:09:02.240Z,7.15
2019-03-23T20:11:53.241Z,7.15
2019-03-23T20:15:06.865Z,7.23
2019-03-23T20:17:56.626Z,7.21
2019-03-23T20:20:27.414Z,7.28
2019-03-23T20:28:40.834Z,7.12
2019-03-23T20:31:11.581Z,7.12
2019-03-23T20:36:44.267Z,7.00
2019-03-23T20:42:12.626Z,6.96
2019-03-23T20:45:02.546Z,7.02
2019-03-23T20:47:53.434Z,7.02
2019-03-23T20:50:24.426Z,6.98
2019-03-23T20:53:15.538Z,6.88
2019-03-23T20:55:46.237Z,6.92
2019-03-23T20:58:17.431Z,6.88
2019-03-23T21:00:48.239Z,6.93
2019-03-23T21:12:06.386Z,6.80
2019-03-23T21:14:38.659Z,6.74
2019-03-23T21:17:09.394Z,6.68
2019-03-23T21:19:40.046Z,6.75
2019-03-23T21:22:10.701Z,6.65
2019-03-23T21:24:41.489Z,6.67
2019-03-23T21:27:12.212Z,6.66
2019-03-23T21:29:42.855Z,6.64
2019-03-23T21:32:13.605Z,6.61
2019-03-23T21:34:44.281Z,6.53
2019-03-23T21:37:26.504Z,6.58
2019-03-23T21:40:35.070Z,6.59
2019-03-23T21:43:05.647Z,6.47
2019-03-23T21:45:36.313Z,6.48
2019-03-23T21:48:06.969Z,6.56
2019-03-23T21:50:47.106Z,6.64
2019-03-23T21:53:09.999Z,6.68
2019-03-23T21:55:40.668Z,6.63
2019-03-23T21:58:11.335Z,6.63
2019-03-23T22:00:41.983Z,6.54
2019-03-23T22:03:12.622Z,6.57
2019-03-23T22:05:43.277Z,6.64
2019-03-23T22:08:13.955Z,6.68
2019-03-23T22:10:44.593Z,6.68
2019-03-23T22:13:15.218Z,6.60
2019-03-23T22:15:45.886Z,6.69
2019-03-23T22:18:16.552Z,6.71
2019-03-23T22:20:47.307Z,6.68
2019-03-23T22:29:56.932Z,6.51
2019-03-23T22:35:31.382Z,6.49
2019-03-23T22:38:02.022Z,6.22
2019-03-23T22:40:32.664Z,6.41
2019-03-23T22:45:46.129Z,6.40
2019-03-23T22:48:16.991Z,6.33
2019-03-23T22:50:47.839Z,6.28
2019-03-23T22:56:34.717Z,6.23
2019-03-23T23:08:28.778Z,6.20
2019-03-23T23:13:52.703Z,6.10
2019-03-23T23:19:36.026Z,6.10
2019-03-23T23:22:06.681Z,6.06
2019-03-23T23:24:37.390Z,6.06
2019-03-23T23:27:08.217Z,6.01
2019-03-23T23:29:38.852Z,6.04
2019-03-23T23:32:09.531Z,6.05
2019-03-23T23:34:40.190Z,5.97
2019-03-23T23:37:10.877Z,5.94
2019-03-23T23:39:41.531Z,5.92
2019-03-23T23:42:12.250Z,5.86
2019-03-23T23:47:25.212Z,5.90
2019-03-23T23:49:55.919Z,5.91
2019-03-23T23:52:26.562Z,5.86
2019-03-23T23:54:57.235Z,5.91
